Terminal Aerodrome Forecast
Issued by NWS

Home | Current Version | Previous Version | Graphics & Text | Print | Product List | Glossary On
Versions: 1 2 3 4 5 6 7 8 9 10 11 12 13 14 15 16 17 18 19 20 21 22 23 24 25
000
FTUS43 KICT 202200 AAA
TAFHUT
TAF AMD
KHUT 202257Z 2023/2118 05009KT P6SM SKC
     FM210800 10007KT 3SM BR SKC
      TEMPO 2108/2111 1SM BR
     FM211100 11005KT 2SM BR SKC
      TEMPO 2111/2114 1/2SM FG SCT002
     FM211400 12007KT 4SM BR SCT010
     FM211600 15009KT P6SM BKN035=

USA.gov is the U.S. government's official web portal to all federal, state and local government web resources and services.